LXJ333 MYNN-KILM
Flight info
| Callsign | LXJ333 |
|---|---|
| Flight time | N/A |
| Altitude | 41000 |
| Route | INGRA G437 ELBOW DCT JAZZI/N0424F410 AR3 GARIC |
| Aircraft | E55P/M-SBDFGHJ2RWY/LB2 |
Departure
| Time | N/A |
|---|---|
| Airport | Lynden Pindling International Airport (MYNN) |
Arrival
| Time | 2026-04-23 23:03 |
|---|---|
| Airport | Wilmington International Airport (KILM) |
| Time | Latitude | Longitude | Altitude | Speed | Heading |
|---|---|---|---|---|---|
| 2026-04-23 22:45 | 33.42242 | -77.95411 | 21512 ft | 422 kts | 356° |
| 2026-04-23 22:45 | 33.45229 | -77.95592 | 21043 ft | 430 kts | 356° |
| 2026-04-23 22:45 | 33.48201 | -77.95771 | 20559 ft | 426 kts | 356° |
| 2026-04-23 22:46 | 33.51148 | -77.95946 | 20091 ft | 423 kts | 356° |
| 2026-04-23 22:46 | 33.54079 | -77.96125 | 19585 ft | 419 kts | 356° |
| 2026-04-23 22:46 | 33.56996 | -77.96300 | 19098 ft | 417 kts | 356° |
| 2026-04-23 22:46 | 33.59901 | -77.96480 | 18622 ft | 416 kts | 357° |
| 2026-04-23 22:47 | 33.62780 | -77.96652 | 18157 ft | 414 kts | 357° |
| 2026-04-23 22:47 | 33.65639 | -77.96822 | 17699 ft | 411 kts | 357° |
| 2026-04-23 22:47 | 33.68504 | -77.96992 | 17243 ft | 405 kts | 357° |
| 2026-04-23 22:47 | 33.71298 | -77.97157 | 16796 ft | 401 kts | 356° |
| 2026-04-23 22:48 | 33.74079 | -77.97328 | 16341 ft | 398 kts | 356° |
| 2026-04-23 22:48 | 33.76849 | -77.97497 | 15904 ft | 395 kts | 356° |
| 2026-04-23 22:48 | 33.79614 | -77.97665 | 15473 ft | 392 kts | 356° |
| 2026-04-23 22:48 | 33.82320 | -77.97831 | 15031 ft | 389 kts | 356° |
| 2026-04-23 22:49 | 33.85036 | -77.97996 | 14590 ft | 386 kts | 356° |
| 2026-04-23 22:49 | 33.87686 | -77.98116 | 14319 ft | 382 kts | 1° |
| 2026-04-23 22:49 | 33.90334 | -77.97586 | 14344 ft | 385 kts | 9° |
| 2026-04-23 22:49 | 33.92994 | -77.97107 | 14330 ft | 384 kts | 10° |
| 2026-04-23 22:50 | 33.95654 | -77.96564 | 14123 ft | 385 kts | 8° |
| 2026-04-23 22:50 | 33.98125 | -77.95592 | 13650 ft | 361 kts | 26° |
| 2026-04-23 22:50 | 34.00199 | -77.94200 | 12808 ft | 323 kts | 36° |
| 2026-04-23 22:50 | 34.01586 | -77.92210 | 12000 ft | 301 kts | 56° |
| 2026-04-23 22:51 | 34.02718 | -77.90176 | 11109 ft | 284 kts | 54° |
| 2026-04-23 22:51 | 34.03775 | -77.88236 | 10284 ft | 273 kts | 53° |
| 2026-04-23 22:51 | 34.04804 | -77.86352 | 9381 ft | 265 kts | 53° |
| 2026-04-23 22:51 | 34.05803 | -77.84526 | 8537 ft | 259 kts | 53° |
| 2026-04-23 22:52 | 34.06864 | -77.82872 | 7649 ft | 242 kts | 35° |
| 2026-04-23 22:52 | 34.08311 | -77.82214 | 6683 ft | 212 kts | 358° |
| 2026-04-23 22:52 | 34.09676 | -77.82510 | 5741 ft | 198 kts | 336° |
| 2026-04-23 22:52 | 34.10918 | -77.83108 | 4805 ft | 194 kts | 337° |
| 2026-04-23 22:53 | 34.12154 | -77.83660 | 3873 ft | 192 kts | 336° |
| 2026-04-23 22:53 | 34.13375 | -77.84212 | 3057 ft | 185 kts | 336° |
| 2026-04-23 22:53 | 34.14562 | -77.84750 | 2500 ft | 179 kts | 336° |
| 2026-04-23 22:53 | 34.15679 | -77.85255 | 2210 ft | 162 kts | 335° |
| 2026-04-23 22:54 | 34.16696 | -77.85716 | 1979 ft | 152 kts | 334° |
| 2026-04-23 22:54 | 34.17686 | -77.86167 | 1779 ft | 152 kts | 333° |
| 2026-04-23 22:54 | 34.18689 | -77.86626 | 1581 ft | 156 kts | 334° |
| 2026-04-23 22:54 | 34.19751 | -77.87112 | 1382 ft | 167 kts | 334° |
| 2026-04-23 22:55 | 34.20871 | -77.87620 | 1160 ft | 175 kts | 335° |
| 2026-04-23 22:55 | 34.22031 | -77.88147 | 962 ft | 168 kts | 336° |
| 2026-04-23 22:55 | 34.23056 | -77.88609 | 738 ft | 147 kts | 335° |
| 2026-04-23 22:55 | 34.23974 | -77.89030 | 526 ft | 132 kts | 335° |
| 2026-04-23 22:56 | 34.24801 | -77.89398 | 343 ft | 125 kts | 337° |
| 2026-04-23 22:56 | 34.25613 | -77.89758 | 189 ft | 121 kts | 334° |
| 2026-04-23 22:56 | 34.26405 | -77.90128 | 32 ft | 122 kts | 335° |
| 2026-04-23 22:56 | 34.27132 | -77.90460 | 28 ft | 102 kts | 338° |
| 2026-04-23 22:57 | 34.27897 | -77.90803 | 189 ft | 139 kts | 338° |
| 2026-04-23 22:57 | 34.28885 | -77.91216 | 951 ft | 168 kts | 338° |
| 2026-04-23 22:57 | 34.29966 | -77.91625 | 1950 ft | 157 kts | 339° |
| 2026-04-23 22:57 | 34.31057 | -77.91694 | 1970 ft | 157 kts | 10° |
| 2026-04-23 22:58 | 34.32046 | -77.91155 | 1988 ft | 155 kts | 37° |
| 2026-04-23 22:58 | 34.32871 | -77.90336 | 1984 ft | 154 kts | 37° |
| 2026-04-23 22:58 | 34.33806 | -77.89419 | 2047 ft | 176 kts | 37° |
| 2026-04-23 22:58 | 34.34819 | -77.88577 | 1984 ft | 172 kts | 16° |
| 2026-04-23 22:59 | 34.35944 | -77.88163 | 1989 ft | 168 kts | 12° |
| 2026-04-23 22:59 | 34.37053 | -77.88217 | 1982 ft | 153 kts | 329° |
| 2026-04-23 22:59 | 34.37729 | -77.89084 | 1864 ft | 139 kts | 284° |
| 2026-04-23 22:59 | 34.37706 | -77.90208 | 1726 ft | 133 kts | 248° |
| 2026-04-23 23:00 | 34.37074 | -77.91000 | 1534 ft | 137 kts | 204° |
| 2026-04-23 23:00 | 34.36137 | -77.91200 | 1480 ft | 132 kts | 193° |
| 2026-04-23 23:00 | 34.35222 | -77.91383 | 1326 ft | 132 kts | 194° |
| 2026-04-23 23:00 | 34.34309 | -77.91567 | 1175 ft | 133 kts | 193° |
| 2026-04-23 23:01 | 34.33383 | -77.91755 | 1015 ft | 134 kts | 193° |
| 2026-04-23 23:01 | 34.32457 | -77.91944 | 854 ft | 135 kts | 193° |
| 2026-04-23 23:01 | 34.31514 | -77.92137 | 692 ft | 136 kts | 192° |
| 2026-04-23 23:01 | 34.30559 | -77.92049 | 550 ft | 136 kts | 162° |
| 2026-04-23 23:02 | 34.29734 | -77.91647 | 404 ft | 125 kts | 160° |
| 2026-04-23 23:02 | 34.28927 | -77.91282 | 208 ft | 118 kts | 162° |
| 2026-04-23 23:02 | 34.28182 | -77.90941 | 34 ft | 107 kts | 162° |
| 2026-04-23 23:02 | 34.27553 | -77.90655 | 27 ft | 87 kts | 160° |
| 2026-04-23 23:03 | 34.27128 | -77.90459 | 27 ft | 24 kts | 159° |
| 2026-04-23 23:03 | 34.27103 | -77.90511 | 27 ft | 11 kts | 287° |
| 2026-04-23 23:03 | 34.27121 | -77.90610 | 27 ft | 12 kts | 282° |
| 2026-04-23 23:03 | 34.27146 | -77.90708 | 27 ft | 12 kts | 313° |
| 2026-04-23 23:04 | 34.27222 | -77.90760 | 27 ft | 12 kts | 331° |
| 2026-04-23 23:04 | 34.27302 | -77.90810 | 27 ft | 13 kts | 329° |
| 2026-04-23 23:04 | 34.27367 | -77.90868 | 27 ft | 9 kts | 291° |
| 2026-04-23 23:04 | 34.27359 | -77.90940 | 27 ft | 9 kts | 229° |
| 2026-04-23 23:05 | 34.27336 | -77.90991 | 27 ft | 0 kts | 316° |
| 2026-04-23 23:05 | 34.27343 | -77.90994 | 27 ft | 0 kts | 351° |